createdAt,value
2022-09-15T00:01:14.300Z,99.90
2022-09-15T00:03:42.038Z,99.90
2022-09-15T00:06:10.599Z,99.90
2022-09-15T00:08:38.743Z,99.90
2022-09-15T00:11:15.287Z,99.90
2022-09-15T00:13:43.028Z,99.90
2022-09-15T00:16:14.754Z,99.90
2022-09-15T00:18:43.853Z,99.90
2022-09-15T00:21:15.232Z,99.90
2022-09-15T00:23:42.905Z,99.90
2022-09-15T00:26:12.993Z,99.90
2022-09-15T00:28:41.142Z,99.90
2022-09-15T00:31:11.631Z,99.90
2022-09-15T00:33:39.483Z,99.90
2022-09-15T00:36:10.841Z,99.90
2022-09-15T00:38:39.308Z,99.90
2022-09-15T00:41:08.561Z,99.90
2022-09-15T00:43:51.061Z,99.90
2022-09-15T00:46:37.086Z,99.90
2022-09-15T00:49:14.650Z,99.90
2022-09-15T00:51:57.054Z,99.90
2022-09-15T00:54:39.359Z,99.90
2022-09-15T00:57:11.613Z,99.90
2022-09-15T00:59:41.555Z,99.90
2022-09-15T01:02:19.687Z,99.90
2022-09-15T01:04:47.353Z,99.90
2022-09-15T01:07:34.404Z,99.90
2022-09-15T01:10:15.919Z,99.90
2022-09-15T01:12:43.918Z,99.90
2022-09-15T01:15:12.067Z,99.90
2022-09-15T01:18:05.268Z,99.90
2022-09-15T01:20:47.363Z,99.90
2022-09-15T01:23:48.162Z,99.90
2022-09-15T01:26:37.932Z,99.90
2022-09-15T01:29:42.870Z,99.90
2022-09-15T01:32:37.354Z,99.90
2022-09-15T01:35:07.523Z,99.90
2022-09-15T01:37:40.017Z,99.90
2022-09-15T01:40:09.941Z,99.90
2022-09-15T01:42:39.939Z,99.90
2022-09-15T01:45:22.103Z,99.90
2022-09-15T01:47:54.027Z,99.90
2022-09-15T01:50:28.138Z,99.90
2022-09-15T01:53:00.155Z,99.90
2022-09-15T01:55:37.898Z,99.90
2022-09-15T01:58:06.789Z,99.90
2022-09-15T02:00:38.419Z,99.90
2022-09-15T02:03:33.175Z,99.90
2022-09-15T02:06:07.159Z,99.90
2022-09-15T02:08:49.895Z,99.90
2022-09-15T02:11:20.022Z,99.90
2022-09-15T02:14:01.017Z,99.90
2022-09-15T02:16:33.649Z,99.90
2022-09-15T02:19:16.242Z,99.90
2022-09-15T02:22:17.603Z,99.90
2022-09-15T02:24:50.612Z,99.90
2022-09-15T02:27:24.110Z,99.90
2022-09-15T02:29:55.590Z,99.90
2022-09-15T02:32:25.213Z,99.90
2022-09-15T02:34:55.095Z,99.90
2022-09-15T02:37:24.237Z,99.90
2022-09-15T02:39:56.573Z,99.90
2022-09-15T02:42:25.366Z,99.90
2022-09-15T02:44:53.159Z,99.90
2022-09-15T02:47:20.739Z,99.90
2022-09-15T02:49:48.409Z,99.90
2022-09-15T02:52:16.630Z,99.90
2022-09-15T02:54:44.553Z,99.90
2022-09-15T02:57:11.926Z,99.90
2022-09-15T03:00:00.113Z,99.90
2022-09-15T03:02:27.614Z,99.90
2022-09-15T03:04:55.109Z,99.90
2022-09-15T03:07:23.467Z,99.90
2022-09-15T03:09:51.563Z,99.90
2022-09-15T03:12:18.943Z,99.90
2022-09-15T03:14:47.020Z,99.90
2022-09-15T03:17:14.390Z,99.90
2022-09-15T03:19:41.670Z,99.90
2022-09-15T03:22:10.328Z,99.90
2022-09-15T03:24:38.140Z,99.90
2022-09-15T03:27:06.065Z,99.90
2022-09-15T03:29:33.410Z,99.90
2022-09-15T03:32:01.711Z,99.90
2022-09-15T03:34:29.063Z,99.90
2022-09-15T03:36:56.359Z,99.90
2022-09-15T03:39:24.304Z,99.90
2022-09-15T03:41:51.638Z,99.90
2022-09-15T03:44:19.317Z,99.90
2022-09-15T03:46:47.195Z,99.90
2022-09-15T03:49:14.789Z,99.90
2022-09-15T03:51:42.156Z,99.90
2022-09-15T03:54:11.110Z,99.90
2022-09-15T03:56:38.529Z,99.90
2022-09-15T03:59:06.119Z,99.90
2022-09-15T04:01:34.808Z,99.90
2022-09-15T04:04:03.048Z,99.90
2022-09-15T04:06:31.087Z,99.90
2022-09-15T04:09:00.315Z,99.90
2022-09-15T04:11:27.890Z,99.90
2022-09-15T04:13:55.811Z,99.90
2022-09-15T04:16:25.235Z,99.90
2022-09-15T04:18:55.598Z,99.90
2022-09-15T04:21:25.675Z,99.90
2022-09-15T04:23:54.169Z,99.90
2022-09-15T04:26:31.678Z,99.90
2022-09-15T04:29:03.935Z,99.90
2022-09-15T04:31:33.429Z,99.90
2022-09-15T04:34:00.921Z,99.90
2022-09-15T04:36:29.213Z,99.90
2022-09-15T04:38:58.070Z,99.90
2022-09-15T04:41:26.716Z,99.90
2022-09-15T04:43:54.218Z,99.90
2022-09-15T04:46:21.606Z,99.90
2022-09-15T04:48:49.368Z,99.90
2022-09-15T04:51:19.659Z,99.90
2022-09-15T04:53:47.243Z,99.90
2022-09-15T04:56:23.819Z,99.90
2022-09-15T04:59:02.454Z,99.90
2022-09-15T05:01:35.199Z,99.90
2022-09-15T05:04:04.396Z,99.90
2022-09-15T05:06:32.223Z,99.90
2022-09-15T05:08:59.604Z,99.90
2022-09-15T05:11:28.291Z,99.90
2022-09-15T05:13:55.716Z,99.90
2022-09-15T05:16:27.200Z,99.90
2022-09-15T05:19:00.544Z,99.90
2022-09-15T05:21:28.366Z,99.90
2022-09-15T05:23:56.372Z,99.90
2022-09-15T05:26:25.903Z,99.90
2022-09-15T05:28:53.900Z,99.90
2022-09-15T05:31:31.003Z,99.90
2022-09-15T05:34:06.257Z,99.90
2022-09-15T05:36:34.247Z,99.90
2022-09-15T05:39:02.109Z,99.90
2022-09-15T05:41:29.523Z,99.90
2022-09-15T05:43:57.956Z,99.90
2022-09-15T05:46:26.698Z,99.90
2022-09-15T05:48:56.347Z,99.90
2022-09-15T05:51:25.313Z,99.90
2022-09-15T05:53:53.097Z,99.90
2022-09-15T05:56:20.701Z,99.90
2022-09-15T05:58:48.979Z,99.90
2022-09-15T06:01:19.057Z,99.90
2022-09-15T06:03:47.985Z,99.90
2022-09-15T06:06:15.694Z,99.90
2022-09-15T06:08:48.287Z,99.90
2022-09-15T06:11:18.401Z,99.90
2022-09-15T06:13:46.942Z,99.90
2022-09-15T06:16:20.290Z,99.90
2022-09-15T06:18:49.648Z,99.90
2022-09-15T06:21:22.431Z,99.90
2022-09-15T06:23:55.689Z,99.90
2022-09-15T06:26:23.493Z,99.90
2022-09-15T06:28:53.862Z,99.90
2022-09-15T06:31:22.778Z,99.90
2022-09-15T06:33:52.099Z,99.90
2022-09-15T06:36:21.618Z,99.90
2022-09-15T06:38:49.614Z,99.90
2022-09-15T06:41:17.015Z,99.90
2022-09-15T06:43:45.156Z,99.90
2022-09-15T06:46:15.386Z,99.90
2022-09-15T06:48:48.031Z,99.90
2022-09-15T06:51:17.449Z,99.90
2022-09-15T06:53:45.522Z,99.90
2022-09-15T06:56:15.891Z,99.90
2022-09-15T06:58:44.752Z,99.90
2022-09-15T07:01:21.071Z,99.90
2022-09-15T07:03:48.957Z,99.90
2022-09-15T07:06:16.595Z,99.90
2022-09-15T07:08:45.297Z,99.90
2022-09-15T07:11:13.505Z,99.90
2022-09-15T07:13:42.059Z,99.90
2022-09-15T07:16:13.017Z,99.90
2022-09-15T07:18:43.200Z,99.90
2022-09-15T07:21:17.117Z,99.90
2022-09-15T07:23:44.657Z,99.90
2022-09-15T07:26:14.877Z,99.90
2022-09-15T07:28:44.038Z,99.90
2022-09-15T07:31:15.404Z,99.90
2022-09-15T07:33:42.892Z,99.90
2022-09-15T07:36:10.707Z,99.90
2022-09-15T07:38:43.570Z,99.90
2022-09-15T07:41:13.830Z,99.90
2022-09-15T07:43:46.682Z,99.90
2022-09-15T07:46:14.818Z,99.90
2022-09-15T07:48:45.770Z,99.90
2022-09-15T07:51:14.190Z,99.90
2022-09-15T07:53:42.009Z,99.90
2022-09-15T07:56:09.622Z,99.90
2022-09-15T07:58:36.958Z,99.90
2022-09-15T08:01:06.497Z,99.90
2022-09-15T08:03:33.917Z,99.90
2022-09-15T08:06:02.914Z,99.90
2022-09-15T08:08:30.743Z,99.90
2022-09-15T08:10:58.077Z,99.10
2022-09-15T08:13:25.747Z,96.20
2022-09-15T08:15:53.133Z,92.90
2022-09-15T08:18:20.940Z,93.10
2022-09-15T08:20:48.231Z,96.00
2022-09-15T08:23:15.508Z,96.20
2022-09-15T08:25:42.835Z,95.30
2022-09-15T08:28:10.121Z,97.00
2022-09-15T08:30:38.839Z,96.70
2022-09-15T08:33:06.138Z,97.40
2022-09-15T08:35:34.333Z,97.60
2022-09-15T08:38:01.647Z,97.10
2022-09-15T08:40:36.756Z,97.20
2022-09-15T08:43:12.762Z,97.60
2022-09-15T08:45:54.180Z,96.30
2022-09-15T08:48:30.717Z,94.40
2022-09-15T08:51:03.986Z,92.30
2022-09-15T08:53:39.871Z,91.60
2022-09-15T08:56:17.807Z,92.70
2022-09-15T08:58:46.000Z,90.80
2022-09-15T09:01:43.959Z,89.50
2022-09-15T09:04:23.418Z,88.20
2022-09-15T09:07:16.333Z,87.60
2022-09-15T09:09:55.417Z,85.20
2022-09-15T09:12:41.090Z,80.70
2022-09-15T09:15:41.783Z,82.90
2022-09-15T09:18:19.597Z,82.10
2022-09-15T09:21:13.183Z,86.70
2022-09-15T09:24:14.213Z,88.50
2022-09-15T09:26:43.037Z,84.20
2022-09-15T09:29:18.359Z,81.10
2022-09-15T09:31:50.774Z,74.10
2022-09-15T09:34:47.602Z,73.70
2022-09-15T09:37:16.884Z,69.30
2022-09-15T09:39:44.308Z,66.30
2022-09-15T09:42:16.081Z,74.60
2022-09-15T09:44:44.181Z,74.80
2022-09-15T09:47:13.172Z,75.50
2022-09-15T09:49:48.207Z,94.00
2022-09-15T09:52:33.314Z,99.90
2022-09-15T09:55:02.577Z,99.90
2022-09-15T09:57:32.498Z,99.90
2022-09-15T09:59:59.949Z,99.90
2022-09-15T10:02:28.088Z,99.90
2022-09-15T10:05:18.265Z,99.90
2022-09-15T10:07:46.366Z,99.90
2022-09-15T10:10:25.808Z,99.90
2022-09-15T10:12:57.799Z,99.90
2022-09-15T10:15:28.065Z,99.90
2022-09-15T10:17:57.083Z,97.40
2022-09-15T10:20:47.816Z,95.80
2022-09-15T10:23:18.230Z,92.80
2022-09-15T10:26:01.595Z,84.40
2022-09-15T10:28:29.153Z,80.00
2022-09-15T10:31:26.507Z,76.20
2022-09-15T10:33:54.197Z,70.90
2022-09-15T10:36:30.514Z,69.00
2022-09-15T10:39:39.170Z,65.10
2022-09-15T10:42:24.011Z,62.10
2022-09-15T10:44:57.681Z,61.00
2022-09-15T10:47:56.226Z,59.00
2022-09-15T10:50:29.291Z,64.70
2022-09-15T10:53:26.771Z,69.00
2022-09-15T10:56:27.686Z,72.40
2022-09-15T10:59:26.148Z,72.10
2022-09-15T11:02:29.205Z,68.60
2022-09-15T11:05:22.556Z,67.80
2022-09-15T11:07:59.839Z,83.10
2022-09-15T11:10:41.369Z,88.50
2022-09-15T11:13:22.175Z,98.30
2022-09-15T11:16:08.219Z,99.90
2022-09-15T11:18:59.345Z,99.90
2022-09-15T11:21:43.403Z,99.90
2022-09-15T11:24:32.533Z,99.90
2022-09-15T11:27:12.367Z,99.90
2022-09-15T11:30:13.520Z,99.90
2022-09-15T11:32:46.785Z,99.90
2022-09-15T11:35:42.644Z,99.90
2022-09-15T11:38:18.178Z,99.90
2022-09-15T11:40:51.030Z,99.90
2022-09-15T11:43:26.299Z,97.50
2022-09-15T11:45:56.615Z,95.90
2022-09-15T11:48:28.267Z,98.30
2022-09-15T11:50:59.425Z,99.60
2022-09-15T11:53:54.114Z,99.60
2022-09-15T11:56:43.784Z,99.90
2022-09-15T11:59:19.382Z,99.90
2022-09-15T12:01:52.829Z,99.90
2022-09-15T12:04:28.463Z,99.70
2022-09-15T12:07:05.235Z,97.80
2022-09-15T12:09:33.327Z,97.40
2022-09-15T12:12:07.697Z,96.80
2022-09-15T12:14:47.710Z,97.00
2022-09-15T12:17:30.199Z,96.40
2022-09-15T12:20:29.663Z,96.00
2022-09-15T12:23:24.014Z,96.30
2022-09-15T12:26:07.018Z,95.40
2022-09-15T12:28:54.775Z,94.60
2022-09-15T12:31:38.017Z,93.80
2022-09-15T12:34:35.627Z,92.30
2022-09-15T12:37:15.198Z,81.60
2022-09-15T12:39:44.823Z,67.70
2022-09-15T12:42:31.272Z,65.30
2022-09-15T12:45:01.201Z,61.00
2022-09-15T12:47:51.681Z,65.00
2022-09-15T12:50:27.338Z,60.00
2022-09-15T12:53:00.189Z,59.00
2022-09-15T12:55:32.193Z,58.00
2022-09-15T12:58:06.802Z,56.50
2022-09-15T13:01:06.717Z,56.10
2022-09-15T13:06:10.634Z,54.40
2022-09-15T13:08:37.927Z,56.90
2022-09-15T13:11:10.542Z,60.90
2022-09-15T13:13:54.335Z,68.40
2022-09-15T13:16:33.638Z,70.30
2022-09-15T13:19:27.963Z,75.50
2022-09-15T13:22:27.405Z,84.30
2022-09-15T13:25:14.685Z,91.00
2022-09-15T13:27:46.009Z,92.90
2022-09-15T13:30:44.628Z,93.00
2022-09-15T13:40:12.904Z,91.20
2022-09-15T13:42:49.031Z,90.90
2022-09-15T13:45:34.587Z,89.40
2022-09-15T13:49:06.937Z,87.20
2022-09-15T13:51:35.212Z,78.90
2022-09-15T13:54:08.244Z,74.90
2022-09-15T13:56:39.947Z,71.90
2022-09-15T13:59:27.527Z,71.90
2022-09-15T14:01:58.764Z,70.60
2022-09-15T14:04:31.751Z,69.50
2022-09-15T14:07:01.567Z,66.60
2022-09-15T14:09:39.526Z,68.00
2022-09-15T14:12:13.563Z,69.30
2022-09-15T14:14:47.751Z,70.70
2022-09-15T14:17:26.715Z,69.80
2022-09-15T14:19:56.795Z,70.80
2022-09-15T14:22:31.191Z,70.70
2022-09-15T14:25:00.756Z,74.10
2022-09-15T14:27:30.527Z,74.70
2022-09-15T14:30:01.083Z,76.50
2022-09-15T14:32:31.440Z,76.90
2022-09-15T14:35:00.175Z,78.10
2022-09-15T14:37:28.892Z,78.30
2022-09-15T14:40:00.862Z,78.70
2022-09-15T14:42:36.029Z,77.40
2022-09-15T14:48:02.246Z,76.70
2022-09-15T14:50:33.125Z,75.50
2022-09-15T14:53:20.582Z,77.20
2022-09-15T14:56:12.325Z,77.80
2022-09-15T14:58:50.478Z,77.80
2022-09-15T15:01:24.378Z,78.90
2022-09-15T15:04:00.278Z,78.20
2022-09-15T15:06:37.343Z,77.40
2022-09-15T15:09:37.577Z,78.00
2022-09-15T15:12:13.200Z,78.30
2022-09-15T15:14:42.747Z,81.50
2022-09-15T15:17:34.251Z,87.00
2022-09-15T15:20:10.661Z,93.70
2022-09-15T15:22:39.390Z,99.90
2022-09-15T15:25:24.530Z,99.90
2022-09-15T15:28:02.138Z,99.90
2022-09-15T15:30:32.549Z,99.90
2022-09-15T15:33:03.166Z,99.90
2022-09-15T15:35:31.887Z,99.90
2022-09-15T15:38:25.535Z,99.90
2022-09-15T15:41:01.798Z,99.90
2022-09-15T15:43:29.464Z,99.90
2022-09-15T15:46:01.503Z,99.90
2022-09-15T15:48:34.023Z,99.90
2022-09-15T15:51:05.607Z,99.90
2022-09-15T15:53:33.055Z,99.90
2022-09-15T15:56:01.117Z,99.90
2022-09-15T15:58:29.034Z,99.90
2022-09-15T16:00:57.802Z,99.90
2022-09-15T16:03:25.615Z,99.90
2022-09-15T16:05:56.789Z,99.90
2022-09-15T16:08:34.478Z,99.90
2022-09-15T16:11:03.357Z,99.90
2022-09-15T16:13:30.914Z,99.90
2022-09-15T16:16:00.982Z,99.90
2022-09-15T16:18:29.477Z,99.90
2022-09-15T16:20:57.076Z,99.90
2022-09-15T16:23:24.361Z,99.90
2022-09-15T16:25:55.720Z,99.90
2022-09-15T16:28:23.195Z,99.90
2022-09-15T16:30:51.257Z,99.90
2022-09-15T16:33:19.671Z,99.90
2022-09-15T16:36:03.695Z,99.90
2022-09-15T16:38:31.095Z,99.90
2022-09-15T16:40:59.026Z,99.90
2022-09-15T16:43:26.430Z,99.90
2022-09-15T16:45:54.179Z,99.90
2022-09-15T16:48:21.730Z,99.90
2022-09-15T16:51:02.404Z,99.90
2022-09-15T16:53:38.461Z,99.90
2022-09-15T16:56:07.714Z,99.90
2022-09-15T16:58:35.033Z,99.90
2022-09-15T17:01:03.500Z,99.90
2022-09-15T17:03:31.232Z,99.90
2022-09-15T17:06:00.301Z,99.90
2022-09-15T17:08:32.397Z,99.90
2022-09-15T17:11:03.052Z,99.90
2022-09-15T17:13:33.660Z,99.90
2022-09-15T17:16:01.734Z,99.90
2022-09-15T17:18:29.487Z,99.90
2022-09-15T17:20:57.154Z,99.90
2022-09-15T17:23:25.850Z,99.90
2022-09-15T17:25:57.341Z,99.90
2022-09-15T17:28:33.180Z,99.90
2022-09-15T17:31:13.870Z,99.90
2022-09-15T17:33:41.861Z,99.90
2022-09-15T17:36:09.275Z,99.90
2022-09-15T17:38:37.833Z,99.90
2022-09-15T17:41:05.237Z,99.90
2022-09-15T17:43:32.641Z,99.90
2022-09-15T17:46:00.946Z,99.90
2022-09-15T17:48:28.360Z,99.90
2022-09-15T17:50:55.664Z,99.90
2022-09-15T17:53:26.741Z,99.90
2022-09-15T17:55:55.399Z,99.90
2022-09-15T17:58:24.889Z,99.90
2022-09-15T18:00:53.814Z,99.90
2022-09-15T18:03:34.799Z,99.90
2022-09-15T18:06:07.967Z,99.90
2022-09-15T18:08:36.124Z,99.90
2022-09-15T18:11:05.417Z,99.90
2022-09-15T18:13:34.040Z,99.90
2022-09-15T18:16:06.915Z,99.90
2022-09-15T18:18:34.847Z,99.90
2022-09-15T18:21:09.227Z,99.90
2022-09-15T18:23:37.470Z,99.90
2022-09-15T18:26:05.119Z,99.90
2022-09-15T18:28:32.445Z,99.90
2022-09-15T18:31:00.319Z,99.90
2022-09-15T18:33:27.763Z,99.90
2022-09-15T18:35:56.991Z,99.90
2022-09-15T18:38:24.867Z,99.90
2022-09-15T18:40:55.821Z,99.90
2022-09-15T18:43:26.294Z,99.90
2022-09-15T18:45:58.653Z,99.90
2022-09-15T18:48:26.004Z,99.90
2022-09-15T18:50:53.435Z,99.90
2022-09-15T18:53:21.487Z,99.90
2022-09-15T18:55:48.821Z,99.90
2022-09-15T18:58:17.664Z,99.90
2022-09-15T19:00:46.117Z,99.90
2022-09-15T19:03:14.406Z,99.90
2022-09-15T19:05:42.079Z,99.90
2022-09-15T19:08:11.273Z,99.90
2022-09-15T19:11:04.433Z,99.90
2022-09-15T19:13:32.125Z,99.90
2022-09-15T19:16:04.466Z,99.90
2022-09-15T19:18:32.689Z,99.90
2022-09-15T19:21:13.130Z,99.90
2022-09-15T19:23:40.999Z,99.90
2022-09-15T19:26:13.767Z,99.90
2022-09-15T19:28:42.048Z,99.90
2022-09-15T19:31:09.739Z,99.90
2022-09-15T19:33:37.903Z,99.90
2022-09-15T19:36:27.045Z,99.90
2022-09-15T19:38:54.980Z,99.90
2022-09-15T19:41:22.322Z,99.90
2022-09-15T19:43:49.883Z,99.90
2022-09-15T19:46:20.440Z,99.90
2022-09-15T19:48:49.467Z,99.90
2022-09-15T19:51:18.999Z,99.90
2022-09-15T19:53:46.746Z,99.90
2022-09-15T19:56:16.403Z,99.90
2022-09-15T19:58:44.598Z,99.90
2022-09-15T20:01:12.259Z,99.90
2022-09-15T20:03:39.705Z,99.90
2022-09-15T20:06:09.127Z,99.90
2022-09-15T20:08:36.922Z,99.90
2022-09-15T20:11:07.006Z,99.90
2022-09-15T20:13:39.299Z,99.90
2022-09-15T20:16:07.443Z,99.90
2022-09-15T20:18:39.249Z,99.90
2022-09-15T20:21:08.161Z,99.90
2022-09-15T20:23:36.854Z,99.90
2022-09-15T20:26:07.595Z,99.90
2022-09-15T20:28:36.094Z,99.90
2022-09-15T20:31:07.596Z,99.90
2022-09-15T20:33:36.939Z,99.90
2022-09-15T20:36:07.162Z,99.90
2022-09-15T20:38:36.623Z,99.90
2022-09-15T20:41:05.343Z,99.90
2022-09-15T20:43:34.894Z,99.90
2022-09-15T20:46:07.434Z,99.90
2022-09-15T20:48:36.684Z,99.90
2022-09-15T20:51:11.569Z,99.90
2022-09-15T20:53:40.682Z,99.90
2022-09-15T20:56:08.664Z,99.90
2022-09-15T20:58:37.223Z,99.90
2022-09-15T21:01:13.043Z,99.90
2022-09-15T21:03:42.268Z,99.90
2022-09-15T21:06:19.022Z,99.90
2022-09-15T21:08:47.832Z,99.90
2022-09-15T21:11:17.682Z,99.90
2022-09-15T21:13:46.066Z,99.90
2022-09-15T21:16:16.197Z,99.90
2022-09-15T21:18:44.741Z,99.90
2022-09-15T21:21:23.149Z,99.90
2022-09-15T21:23:54.145Z,99.90
2022-09-15T21:26:25.121Z,99.90
2022-09-15T21:28:53.618Z,99.90
2022-09-15T21:31:23.414Z,99.90
2022-09-15T21:33:52.396Z,99.90
2022-09-15T21:36:24.588Z,99.90
2022-09-15T21:38:54.098Z,99.90
2022-09-15T21:41:25.104Z,99.90
2022-09-15T21:43:54.938Z,99.90
2022-09-15T21:46:26.290Z,99.90
2022-09-15T21:48:55.829Z,99.90
2022-09-15T21:51:25.190Z,99.90
2022-09-15T21:53:54.380Z,99.90
2022-09-15T21:56:22.976Z,99.90
2022-09-15T21:58:50.342Z,99.90
2022-09-15T22:01:30.297Z,99.90
2022-09-15T22:04:02.764Z,99.90
2022-09-15T22:06:33.612Z,99.90
2022-09-15T22:09:06.199Z,99.90
2022-09-15T22:11:34.334Z,99.90
2022-09-15T22:14:04.044Z,99.90
2022-09-15T22:16:31.913Z,99.90
2022-09-15T22:18:59.799Z,99.90
2022-09-15T22:21:30.518Z,99.90
2022-09-15T22:23:59.184Z,99.90
2022-09-15T22:26:31.804Z,99.90
2022-09-15T22:28:59.871Z,99.90
2022-09-15T22:31:28.446Z,99.90
2022-09-15T22:33:56.520Z,99.90
2022-09-15T22:36:29.897Z,99.90
2022-09-15T22:39:05.955Z,99.90
2022-09-15T22:41:36.610Z,99.90
2022-09-15T22:44:05.295Z,99.90
2022-09-15T22:46:34.505Z,99.90
2022-09-15T22:49:02.165Z,99.90
2022-09-15T22:51:29.789Z,99.90
2022-09-15T22:53:58.183Z,99.90
2022-09-15T22:56:26.718Z,99.90
2022-09-15T22:59:00.285Z,99.90
2022-09-15T23:01:30.739Z,99.90
2022-09-15T23:04:02.171Z,99.90
2022-09-15T23:06:32.397Z,99.90
2022-09-15T23:09:02.139Z,99.90
2022-09-15T23:11:33.826Z,99.90
2022-09-15T23:14:01.900Z,99.90
2022-09-15T23:16:30.748Z,99.90
2022-09-15T23:18:59.248Z,99.90
2022-09-15T23:21:27.988Z,99.90
2022-09-15T23:23:55.820Z,99.90
2022-09-15T23:26:26.691Z,99.90
2022-09-15T23:28:54.870Z,99.90
2022-09-15T23:31:22.497Z,99.90
2022-09-15T23:33:49.900Z,99.90
2022-09-15T23:36:21.200Z,99.90
2022-09-15T23:38:49.504Z,99.90
2022-09-15T23:41:17.387Z,99.90
2022-09-15T23:43:46.033Z,99.90
2022-09-15T23:46:14.202Z,99.90
2022-09-15T23:48:42.165Z,99.90
2022-09-15T23:51:09.653Z,99.90
2022-09-15T23:53:37.467Z,99.90
2022-09-15T23:56:05.240Z,99.90
2022-09-15T23:58:32.931Z,99.90
